Onde está Quinta da Faia en Portugal?

 

Quinta da Faia está situado na região Santarem em Portugal!

Buscar o nome de uma cidade:

Quinta do Almeida, Quintanaentello, Quingueo, Quiña Loma, Quincando

Aqui você vai encontrar a localização de Quinta da Faia em um mapa.
Para ver como ele atualmente parece, abaixo estão algumas fotos da região, com webcams online.
Você também pode encontrar a distância para as principais cidades da região e de cidades do resto do Portugal.

Todos os lugares do mundo chamado .


Onde está Quinta da Faia no mapa?




Webcams perto Quinta da Faia

Abrantes › North-West: › North-West: Zona Alta (Torre).


Abrantes › North-West: › North-West: Zona Alta (Torre) - Dia
Actual
Abrantes › North-West: › North-West: Zona Alta (Torre) - Actual

Abrantes › South-West: Centro Cidade.


Abrantes › South-West: Centro Cidade - Dia
Actual
Abrantes › South-West: Centro Cidade - Actual

Benavente › North-East: AIrport, METAR: BENAV 180005Z 36004KT 17/14 Q1015.


Benavente › North-East: AIrport, METAR: BENAV 180005Z 36004KT 17/14 Q1015 - Dia
Actual
Benavente › North-East: AIrport, METAR: BENAV 180005Z 36004KT 17/14 Q1015 - Actual

Webcams provided by webcams.travel


Distâncias

Onde está Quinta da Faia em relação a outros lugares?

Top 10 cidades em Santarem e distância de Quinta da Faia.

Cidade#Populaçãokmmilhas
Santarém129385117
Entroncamento2198872113
Tomar3191683723
Torres Novas4145261912
Samora Correia5141544729
Abrantes6136464025
Ourém7127293522
Rio Maior8120642717
Fátima9117983421
Almeirim1011556117

Top 10 cidades em Portugal e distância de Quinta da Faia.

Cidade # Populaçãokmmilhas
Lisbon15177988050
Porto2249630204127
Amadora31788568251
Braga4121393249155
Setúbal51171099056
Coimbra610658010062
Queluz71033988251
Funchal8980411051653
Vila Nova de Gaia970810203126
Loures10662307245



Info

Estatística e Geografia

Portugal é composta de 15299 cidades em 20 regiões.

A região de Santarem tem 1174 cidades.

Onde está Quinta da Faia en Portugal?